createdAt,value
2023-01-31T00:01:41.105Z,101373.09
2023-01-31T00:04:12.764Z,101368.19
2023-01-31T00:06:51.473Z,101363.88
2023-01-31T00:09:19.026Z,101370.53
2023-01-31T00:11:45.934Z,101363.03
2023-01-31T00:14:19.473Z,101361.03
2023-01-31T00:16:46.776Z,101361.94
2023-01-31T00:19:13.616Z,101367.00
2023-01-31T00:21:43.691Z,101367.69
2023-01-31T00:24:15.780Z,101378.78
2023-01-31T00:26:42.949Z,101381.78
2023-01-31T00:29:10.558Z,101378.63
2023-01-31T00:31:37.889Z,101380.13
2023-01-31T00:34:05.646Z,101375.75
2023-01-31T00:36:34.988Z,101373.94
2023-01-31T00:39:04.683Z,101380.13
2023-01-31T00:41:32.986Z,101381.41
2023-01-31T00:44:00.326Z,101370.53
2023-01-31T00:46:27.857Z,101369.84
2023-01-31T00:48:56.349Z,101373.25
2023-01-31T00:51:26.587Z,101374.09
2023-01-31T00:53:54.448Z,101370.69
2023-01-31T00:56:23.761Z,101375.13
2023-01-31T00:58:51.087Z,101376.03
2023-01-31T01:01:21.937Z,101370.00
2023-01-31T01:03:49.739Z,101360.63
2023-01-31T01:06:17.119Z,101364.28
2023-01-31T01:08:45.377Z,101358.31
2023-01-31T01:11:25.754Z,101358.44
2023-01-31T01:13:53.262Z,101363.66
2023-01-31T01:16:37.173Z,101365.31
2023-01-31T01:19:07.818Z,101366.81
2023-01-31T01:21:41.049Z,101368.47
2023-01-31T01:24:17.170Z,101351.50
2023-01-31T01:26:45.792Z,101370.41
2023-01-31T01:29:13.417Z,101361.31
2023-01-31T01:31:40.897Z,101356.25
2023-01-31T01:34:13.454Z,101360.81
2023-01-31T01:36:41.015Z,101372.06
2023-01-31T01:39:11.674Z,101372.88
2023-01-31T01:41:40.022Z,101370.72
2023-01-31T01:44:50.600Z,101368.56
2023-01-31T01:47:32.705Z,101380.50
2023-01-31T01:50:13.163Z,101381.50
2023-01-31T01:52:48.801Z,101375.75
2023-01-31T01:55:25.169Z,101381.72
2023-01-31T01:57:57.321Z,101390.25
2023-01-31T02:00:28.754Z,101390.47
2023-01-31T02:03:00.236Z,101388.59
2023-01-31T02:05:39.856Z,101392.13
2023-01-31T02:08:06.893Z,101399.75
2023-01-31T02:10:55.756Z,101392.81
2023-01-31T02:13:23.291Z,101406.69
2023-01-31T02:15:50.287Z,101419.00
2023-01-31T02:18:19.641Z,101409.56
2023-01-31T02:21:28.556Z,101407.84
2023-01-31T02:24:44.704Z,101412.06
2023-01-31T02:27:26.747Z,101399.22
2023-01-31T02:30:39.056Z,101408.25
2023-01-31T02:33:22.880Z,101406.69
2023-01-31T02:36:07.945Z,101408.53
2023-01-31T02:38:45.343Z,101407.72
2023-01-31T02:41:44.254Z,101401.03
2023-01-31T02:45:00.943Z,101404.03
2023-01-31T02:47:55.663Z,101404.03
2023-01-31T02:50:33.109Z,101400.16
2023-01-31T02:53:06.322Z,101398.19
2023-01-31T02:55:58.308Z,101391.63
2023-01-31T02:58:31.567Z,101394.41
2023-01-31T03:01:04.162Z,101402.19
2023-01-31T03:03:36.571Z,101397.25
2023-01-31T03:06:24.737Z,101395.22
2023-01-31T03:09:25.097Z,101404.16
2023-01-31T03:12:19.491Z,101393.38
2023-01-31T03:15:21.924Z,101396.91
2023-01-31T03:18:02.492Z,101397.78
2023-01-31T03:20:52.538Z,101399.38
2023-01-31T03:23:29.559Z,101394.19
2023-01-31T03:25:59.283Z,101402.44
2023-01-31T03:28:32.667Z,101401.50
2023-01-31T03:31:31.311Z,101397.72
2023-01-31T03:34:04.872Z,101407.13
2023-01-31T03:37:21.841Z,101403.88
2023-01-31T03:40:17.860Z,101413.38
2023-01-31T03:43:02.913Z,101417.34
2023-01-31T03:45:41.965Z,101421.72
2023-01-31T03:48:14.492Z,101428.13
2023-01-31T03:51:05.121Z,101426.28
2023-01-31T03:53:59.024Z,101425.72
2023-01-31T03:56:33.191Z,101420.34
2023-01-31T03:59:09.830Z,101418.38
2023-01-31T04:01:43.875Z,101413.53
2023-01-31T04:04:22.039Z,101415.19
2023-01-31T04:06:49.159Z,101411.94
2023-01-31T04:09:16.892Z,101410.53
2023-01-31T04:11:48.896Z,101418.38
2023-01-31T04:14:16.893Z,101417.97
2023-01-31T04:16:44.368Z,101422.06
2023-01-31T04:19:11.971Z,101425.03
2023-01-31T04:21:39.013Z,101419.72
2023-01-31T04:24:06.228Z,101422.41
2023-01-31T04:26:33.364Z,101423.13
2023-01-31T04:29:00.309Z,101427.13
2023-01-31T04:31:27.450Z,101425.72
2023-01-31T04:33:54.461Z,101429.94
2023-01-31T04:36:21.312Z,101430.84
2023-01-31T04:38:48.292Z,101426.66
2023-01-31T04:41:15.154Z,101426.72
2023-01-31T04:43:41.999Z,101420.03
2023-01-31T04:46:09.161Z,101426.84
2023-01-31T04:48:36.588Z,101432.75
2023-01-31T04:51:03.939Z,101434.31
2023-01-31T04:53:30.833Z,101426.78
2023-01-31T04:55:57.681Z,101430.94
2023-01-31T04:58:24.631Z,101429.34
2023-01-31T05:00:53.949Z,101419.84
2023-01-31T05:03:21.114Z,101426.34
2023-01-31T05:05:50.024Z,101420.47
2023-01-31T05:08:17.330Z,101420.75
2023-01-31T05:10:44.267Z,101427.91
2023-01-31T05:13:11.929Z,101426.09
2023-01-31T05:15:40.941Z,101428.88
2023-01-31T05:18:07.854Z,101428.66
2023-01-31T05:20:39.851Z,101432.25
2023-01-31T05:23:07.648Z,101428.03
2023-01-31T05:25:36.411Z,101413.91
2023-01-31T05:28:04.729Z,101419.03
2023-01-31T05:30:32.479Z,101421.00
2023-01-31T05:33:00.736Z,101420.81
2023-01-31T05:35:27.892Z,101421.13
2023-01-31T05:37:55.883Z,101433.84
2023-01-31T05:40:24.576Z,101426.22
2023-01-31T05:43:02.272Z,101423.34
2023-01-31T05:45:29.748Z,101423.03
2023-01-31T05:47:57.481Z,101423.28
2023-01-31T05:50:24.987Z,101425.16
2023-01-31T05:52:54.435Z,101429.91
2023-01-31T05:55:22.844Z,101432.47
2023-01-31T05:57:49.894Z,101440.94
2023-01-31T06:00:17.597Z,101432.56
2023-01-31T06:02:44.591Z,101430.13
2023-01-31T06:05:12.129Z,101433.97
2023-01-31T06:07:39.363Z,101438.56
2023-01-31T06:10:08.519Z,101434.22
2023-01-31T06:12:35.869Z,101438.13
2023-01-31T06:15:04.375Z,101436.91
2023-01-31T06:17:31.575Z,101446.41
2023-01-31T06:19:59.106Z,101449.28
2023-01-31T06:22:26.201Z,101449.09
2023-01-31T06:24:53.171Z,101447.75
2023-01-31T06:27:20.144Z,101459.00
2023-01-31T06:29:47.023Z,101462.19
2023-01-31T06:32:13.944Z,101464.66
2023-01-31T06:34:40.938Z,101454.59
2023-01-31T06:37:11.083Z,101465.81
2023-01-31T06:39:38.074Z,101457.47
2023-01-31T06:42:05.738Z,101464.25
2023-01-31T06:44:33.568Z,101461.63
2023-01-31T06:47:01.602Z,101468.03
2023-01-31T06:49:28.940Z,101465.69
2023-01-31T06:51:56.659Z,101479.25
2023-01-31T06:54:23.765Z,101477.41
2023-01-31T06:56:50.819Z,101468.38
2023-01-31T06:59:17.784Z,101454.00
2023-01-31T07:01:44.821Z,101446.53
2023-01-31T07:04:11.999Z,101447.09
2023-01-31T07:06:38.933Z,101439.06
2023-01-31T07:09:06.117Z,101449.25
2023-01-31T07:11:33.456Z,101454.59
2023-01-31T07:14:00.353Z,101451.97
2023-01-31T07:16:27.267Z,101455.25
2023-01-31T07:18:55.343Z,101460.59
2023-01-31T07:21:24.541Z,101457.78
2023-01-31T07:23:51.405Z,101463.50
2023-01-31T07:26:18.354Z,101465.34
2023-01-31T07:28:45.359Z,101459.09
2023-01-31T07:31:14.363Z,101461.31
2023-01-31T07:33:41.613Z,101465.88
2023-01-31T07:36:13.992Z,101463.03
2023-01-31T07:38:41.700Z,101461.38
2023-01-31T07:41:11.119Z,101473.50
2023-01-31T07:43:38.739Z,101473.69
2023-01-31T07:46:10.521Z,101466.44
2023-01-31T07:48:38.700Z,101470.16
2023-01-31T07:51:05.811Z,101474.78
2023-01-31T07:53:36.664Z,101475.59
2023-01-31T07:56:18.613Z,101474.78
2023-01-31T07:58:48.415Z,101470.56
2023-01-31T08:01:40.761Z,101463.31
2023-01-31T08:04:21.062Z,101469.13
2023-01-31T08:06:52.172Z,101463.25
2023-01-31T08:09:19.063Z,101464.81
2023-01-31T08:11:46.176Z,101476.13
2023-01-31T08:14:13.405Z,101468.38
2023-01-31T08:16:40.370Z,101469.06
2023-01-31T08:19:07.337Z,101463.84
2023-01-31T08:21:34.188Z,101455.38
2023-01-31T08:24:01.213Z,101455.91
2023-01-31T08:26:28.108Z,101470.88
2023-01-31T08:28:55.061Z,101465.00
2023-01-31T08:31:25.730Z,101454.44
2023-01-31T08:33:53.710Z,101449.59
2023-01-31T08:36:23.772Z,101442.84
2023-01-31T08:38:51.411Z,101450.47
2023-01-31T08:41:22.423Z,101443.91
2023-01-31T08:43:58.251Z,101442.09
2023-01-31T08:46:30.795Z,101440.44
2023-01-31T08:48:58.451Z,101427.72
2023-01-31T08:51:25.499Z,101416.31
2023-01-31T08:53:52.963Z,101413.53
2023-01-31T08:56:21.491Z,101407.63
2023-01-31T08:58:48.899Z,101418.25
2023-01-31T09:01:18.686Z,101421.31
2023-01-31T09:03:47.024Z,101432.94
2023-01-31T09:06:20.506Z,101423.66
2023-01-31T09:08:47.831Z,101425.41
2023-01-31T09:11:18.837Z,101424.41
2023-01-31T09:13:49.584Z,101426.09
2023-01-31T09:16:16.486Z,101435.28
2023-01-31T09:18:43.843Z,101442.19
2023-01-31T09:21:20.481Z,101431.81
2023-01-31T09:23:48.761Z,101445.81
2023-01-31T09:26:16.867Z,101448.41
2023-01-31T09:28:45.256Z,101441.47
2023-01-31T09:31:15.538Z,101432.16
2023-01-31T09:33:43.043Z,101433.31
2023-01-31T09:36:13.672Z,101435.88
2023-01-31T09:38:41.170Z,101444.69
2023-01-31T09:41:29.801Z,101439.28
2023-01-31T09:44:11.276Z,101445.28
2023-01-31T09:46:44.721Z,101442.94
2023-01-31T09:49:21.308Z,101439.13
2023-01-31T09:51:54.321Z,101441.50
2023-01-31T09:54:34.695Z,101447.69
2023-01-31T09:57:11.885Z,101434.81
2023-01-31T10:00:10.483Z,101434.69
2023-01-31T10:03:22.136Z,101415.13
2023-01-31T10:06:19.140Z,101415.13
2023-01-31T10:08:56.057Z,101418.09
2023-01-31T10:11:46.697Z,101428.53
2023-01-31T10:14:38.029Z,101424.50
2023-01-31T10:17:18.890Z,101436.88
2023-01-31T10:20:15.717Z,101424.56
2023-01-31T10:23:12.053Z,101421.56
2023-01-31T10:26:06.245Z,101423.06
2023-01-31T10:28:43.665Z,101418.31
2023-01-31T10:31:29.404Z,101390.84
2023-01-31T10:34:19.975Z,101388.09
2023-01-31T10:37:15.927Z,101387.03
2023-01-31T10:39:50.244Z,101398.75
2023-01-31T10:42:33.206Z,101403.28
2023-01-31T10:45:19.826Z,101393.84
2023-01-31T10:48:01.474Z,101387.13
2023-01-31T10:51:03.917Z,101382.09
2023-01-31T10:54:03.397Z,101377.56
2023-01-31T10:56:38.982Z,101375.50
2023-01-31T10:59:13.212Z,101379.44
2023-01-31T11:01:40.212Z,101384.72
2023-01-31T11:04:40.838Z,101385.06
2023-01-31T11:07:09.842Z,101384.91
2023-01-31T11:09:44.012Z,101397.78
2023-01-31T11:12:11.056Z,101391.72
2023-01-31T11:14:38.012Z,101386.28
2023-01-31T11:17:23.069Z,101380.06
2023-01-31T11:19:55.873Z,101370.34
2023-01-31T11:22:35.775Z,101387.84
2023-01-31T11:25:04.373Z,101368.16
2023-01-31T11:27:42.054Z,101343.47
2023-01-31T11:30:41.461Z,101346.75
2023-01-31T11:34:05.446Z,101348.72
2023-01-31T11:36:45.635Z,101342.19
2023-01-31T11:39:37.890Z,101345.16
2023-01-31T11:42:14.662Z,101329.59
2023-01-31T11:45:19.235Z,101320.34
2023-01-31T11:47:50.279Z,101302.94
2023-01-31T11:50:52.276Z,101296.97
2023-01-31T11:53:36.921Z,101296.31
2023-01-31T11:56:24.060Z,101295.97
2023-01-31T11:58:58.924Z,101284.28
2023-01-31T12:01:27.431Z,101283.69
2023-01-31T12:04:03.393Z,101279.31
2023-01-31T12:06:40.302Z,101276.44
2023-01-31T12:09:23.881Z,101287.06
2023-01-31T12:11:55.612Z,101297.34
2023-01-31T12:14:25.561Z,101292.69
2023-01-31T12:16:56.434Z,101297.69
2023-01-31T12:19:59.142Z,101286.94
2023-01-31T12:22:45.115Z,101276.03
2023-01-31T12:25:51.944Z,101268.75
2023-01-31T12:29:31.266Z,101270.84
2023-01-31T12:32:36.049Z,101258.78
2023-01-31T12:35:27.573Z,101249.25
2023-01-31T12:39:04.640Z,101227.28
2023-01-31T12:41:55.129Z,101231.78
2023-01-31T12:44:36.699Z,101236.13
2023-01-31T12:47:29.173Z,101203.91
2023-01-31T12:50:20.887Z,101204.91
2023-01-31T12:53:18.611Z,101209.38
2023-01-31T12:56:00.400Z,101221.78
2023-01-31T12:59:16.278Z,101213.06
2023-01-31T13:02:01.873Z,101213.88
2023-01-31T13:04:44.546Z,101212.88
2023-01-31T13:07:36.469Z,101215.84
2023-01-31T13:10:08.101Z,101214.88
2023-01-31T13:12:36.716Z,101222.25
2023-01-31T13:15:20.296Z,101227.28
2023-01-31T13:17:55.369Z,101211.25
2023-01-31T13:20:33.613Z,101227.31
2023-01-31T13:23:10.364Z,101210.59
2023-01-31T13:25:48.393Z,101213.81
2023-01-31T13:28:40.426Z,101195.19
2023-01-31T13:31:19.442Z,101217.38
2023-01-31T13:33:54.489Z,101210.19
2023-01-31T13:36:33.189Z,101198.75
2023-01-31T13:39:09.204Z,101186.44
2023-01-31T13:41:39.657Z,101161.28
2023-01-31T13:44:13.161Z,101178.75
2023-01-31T13:47:27.693Z,101181.69
2023-01-31T13:49:58.134Z,101168.09
2023-01-31T13:52:47.177Z,101148.50
2023-01-31T13:55:42.968Z,101135.72
2023-01-31T13:58:30.552Z,101113.03
2023-01-31T14:01:15.734Z,101103.97
2023-01-31T14:04:14.791Z,101105.13
2023-01-31T14:07:13.482Z,101110.13
2023-01-31T14:09:45.225Z,101110.84
2023-01-31T14:12:18.011Z,101112.34
2023-01-31T14:14:53.155Z,101122.66
2023-01-31T14:17:29.429Z,101140.50
2023-01-31T14:19:56.724Z,101143.84
2023-01-31T14:22:35.223Z,101158.88
2023-01-31T14:25:11.064Z,101149.00
2023-01-31T14:28:01.728Z,101156.31
2023-01-31T14:30:34.725Z,101140.97
2023-01-31T14:33:13.840Z,101145.78
2023-01-31T14:36:02.054Z,101156.41
2023-01-31T14:39:05.816Z,101159.72
2023-01-31T14:42:13.360Z,101141.25
2023-01-31T14:45:34.067Z,101143.25
2023-01-31T14:48:26.132Z,101125.59
2023-01-31T14:51:34.611Z,101131.31
2023-01-31T14:54:32.419Z,101120.06
2023-01-31T14:57:15.160Z,101104.25
2023-01-31T15:00:05.909Z,101120.91
2023-01-31T15:02:32.977Z,101139.63
2023-01-31T15:05:09.385Z,101130.25
2023-01-31T15:07:36.406Z,101144.09
2023-01-31T15:10:04.944Z,101146.81
2023-01-31T15:13:00.777Z,101149.31
2023-01-31T15:15:37.459Z,101153.72
2023-01-31T15:18:26.494Z,101137.22
2023-01-31T15:20:59.499Z,101133.47
2023-01-31T15:23:30.551Z,101162.50
2023-01-31T15:25:59.094Z,101151.63
2023-01-31T15:28:36.411Z,101165.47
2023-01-31T15:31:14.861Z,101162.97
2023-01-31T15:33:45.898Z,101158.63
2023-01-31T15:36:33.209Z,101170.13
2023-01-31T15:39:33.272Z,101161.78
2023-01-31T15:42:33.777Z,101155.56
2023-01-31T15:45:29.865Z,101146.28
2023-01-31T15:48:09.236Z,101132.94
2023-01-31T15:50:36.137Z,101144.44
2023-01-31T15:53:15.036Z,101145.75
2023-01-31T15:55:42.283Z,101162.28
2023-01-31T15:58:23.856Z,101149.25
2023-01-31T16:01:01.384Z,101160.03
2023-01-31T16:03:39.694Z,101170.25
2023-01-31T16:06:43.532Z,101166.09
2023-01-31T16:09:30.609Z,101179.28
2023-01-31T16:11:59.518Z,101171.06
2023-01-31T16:14:27.778Z,101166.75
2023-01-31T16:16:56.986Z,101172.66
2023-01-31T16:19:31.564Z,101177.47
2023-01-31T16:21:59.371Z,101176.97
2023-01-31T16:24:26.438Z,101181.88
2023-01-31T16:27:14.628Z,101174.41
2023-01-31T16:29:45.500Z,101185.03
2023-01-31T16:32:26.713Z,101182.72
2023-01-31T16:35:05.163Z,101187.97
2023-01-31T16:37:36.456Z,101188.72
2023-01-31T16:40:30.427Z,101202.13
2023-01-31T16:43:09.627Z,101187.56
2023-01-31T16:45:36.544Z,101199.03
2023-01-31T16:48:29.982Z,101183.78
2023-01-31T16:51:00.150Z,101187.19
2023-01-31T16:53:39.833Z,101184.81
2023-01-31T16:56:19.971Z,101199.78
2023-01-31T16:58:59.243Z,101188.53
2023-01-31T17:01:35.345Z,101193.19
2023-01-31T17:04:11.498Z,101197.00
2023-01-31T17:06:39.162Z,101195.06
2023-01-31T17:09:15.802Z,101198.78
2023-01-31T17:11:43.833Z,101191.03
2023-01-31T17:14:11.551Z,101190.00
2023-01-31T17:16:39.312Z,101190.94
2023-01-31T17:19:06.228Z,101192.03
2023-01-31T17:21:41.458Z,101199.78
2023-01-31T17:24:15.205Z,101192.31
2023-01-31T17:26:42.590Z,101198.31
2023-01-31T17:29:10.200Z,101185.47
2023-01-31T17:31:37.440Z,101182.47
2023-01-31T17:34:14.105Z,101168.09
2023-01-31T17:36:41.852Z,101179.66
2023-01-31T17:39:09.020Z,101187.63
2023-01-31T17:41:37.176Z,101173.19
2023-01-31T17:44:06.455Z,101177.47
2023-01-31T17:46:34.499Z,101171.41
2023-01-31T17:49:01.435Z,101180.38
2023-01-31T17:51:28.428Z,101189.03
2023-01-31T17:53:55.374Z,101183.88
2023-01-31T17:56:22.275Z,101190.19
2023-01-31T17:58:49.477Z,101184.63
2023-01-31T18:01:16.705Z,101186.09
2023-01-31T18:03:43.706Z,101204.72
2023-01-31T18:06:12.052Z,101199.38
2023-01-31T18:08:39.289Z,101199.38
2023-01-31T18:11:08.545Z,101199.72
2023-01-31T18:13:38.082Z,101200.38
2023-01-31T18:16:11.307Z,101195.13
2023-01-31T18:18:40.630Z,101191.28
2023-01-31T18:21:17.975Z,101199.72
2023-01-31T18:23:53.913Z,101193.28
2023-01-31T18:26:21.866Z,101190.38
2023-01-31T18:28:49.719Z,101197.00
2023-01-31T18:31:18.480Z,101197.19
2023-01-31T18:33:47.249Z,101202.53
2023-01-31T18:36:18.815Z,101206.88
2023-01-31T18:38:48.034Z,101203.97
2023-01-31T18:41:18.935Z,101197.44
2023-01-31T18:43:46.838Z,101194.75
2023-01-31T18:46:15.348Z,101192.19
2023-01-31T18:48:42.320Z,101185.53
2023-01-31T18:51:13.539Z,101176.94
2023-01-31T18:53:46.477Z,101174.81
2023-01-31T18:56:18.079Z,101187.06
2023-01-31T18:58:46.871Z,101188.88
2023-01-31T19:01:21.341Z,101188.06
2023-01-31T19:03:52.772Z,101187.53
2023-01-31T19:06:23.311Z,101178.31
2023-01-31T19:08:55.604Z,101187.13
2023-01-31T19:11:25.838Z,101196.16
2023-01-31T19:13:53.559Z,101197.63
2023-01-31T19:16:27.184Z,101202.13
2023-01-31T19:18:56.377Z,101203.72
2023-01-31T19:21:27.089Z,101189.16
2023-01-31T19:23:59.461Z,101200.94
2023-01-31T19:26:27.271Z,101189.66
2023-01-31T19:28:54.578Z,101202.59
2023-01-31T19:31:24.696Z,101202.59
2023-01-31T19:33:57.444Z,101207.75
2023-01-31T19:36:30.675Z,101209.78
2023-01-31T19:39:01.161Z,101202.06
2023-01-31T19:41:29.199Z,101189.06
2023-01-31T19:43:58.486Z,101201.13
2023-01-31T19:46:28.888Z,101200.53
2023-01-31T19:48:57.257Z,101198.59
2023-01-31T19:51:25.716Z,101186.63
2023-01-31T19:54:01.616Z,101181.06
2023-01-31T19:56:30.202Z,101174.81
2023-01-31T19:58:57.979Z,101174.22
2023-01-31T20:01:25.139Z,101172.06
2023-01-31T20:03:55.043Z,101183.84
2023-01-31T20:06:27.631Z,101195.47
2023-01-31T20:09:01.419Z,101203.75
2023-01-31T20:11:29.923Z,101206.47
2023-01-31T20:13:58.478Z,101223.75
2023-01-31T20:16:25.817Z,101221.06
2023-01-31T20:18:55.506Z,101221.50
2023-01-31T20:21:23.190Z,101218.75
2023-01-31T20:23:50.640Z,101220.25
2023-01-31T20:26:19.163Z,101208.91
2023-01-31T20:28:46.302Z,101206.28
2023-01-31T20:31:14.916Z,101200.25
2023-01-31T20:33:42.302Z,101192.66
2023-01-31T20:36:09.914Z,101190.22
2023-01-31T20:38:40.759Z,101186.47
2023-01-31T20:41:09.613Z,101178.84
2023-01-31T20:43:37.245Z,101192.09
2023-01-31T20:46:08.756Z,101177.41
2023-01-31T20:48:36.514Z,101164.28
2023-01-31T20:51:03.975Z,101161.84
2023-01-31T20:53:31.953Z,101152.88
2023-01-31T20:56:09.821Z,101163.38
2023-01-31T20:58:39.613Z,101160.69
2023-01-31T21:01:08.210Z,101169.44
2023-01-31T21:03:36.645Z,101171.84
2023-01-31T21:06:05.292Z,101186.97
2023-01-31T21:08:32.833Z,101192.19
2023-01-31T21:11:05.076Z,101188.63
2023-01-31T21:13:33.081Z,101187.31
2023-01-31T21:16:04.087Z,101199.81
2023-01-31T21:18:34.692Z,101200.31
2023-01-31T21:21:11.694Z,101200.84
2023-01-31T21:23:40.402Z,101191.38
2023-01-31T21:26:11.682Z,101180.53
2023-01-31T21:28:40.844Z,101179.97
2023-01-31T21:31:12.474Z,101171.66
2023-01-31T21:33:39.692Z,101182.38
2023-01-31T21:36:11.464Z,101186.66
2023-01-31T21:38:39.326Z,101182.28
2023-01-31T21:41:25.914Z,101179.16
2023-01-31T21:43:53.336Z,101188.22
2023-01-31T21:46:20.438Z,101195.31
2023-01-31T21:48:47.529Z,101195.97
2023-01-31T21:51:17.237Z,101193.13
2023-01-31T21:53:44.901Z,101203.75
2023-01-31T21:56:22.872Z,101209.50
2023-01-31T21:58:50.353Z,101196.16
2023-01-31T22:01:23.106Z,101194.13
2023-01-31T22:03:52.723Z,101180.91
2023-01-31T22:06:26.419Z,101182.28
2023-01-31T22:08:58.943Z,101182.47
2023-01-31T22:11:26.627Z,101187.63
2023-01-31T22:13:55.909Z,101196.53
2023-01-31T22:16:23.588Z,101197.81
2023-01-31T22:18:51.931Z,101193.06
2023-01-31T22:21:26.082Z,101192.78
2023-01-31T22:23:55.717Z,101195.19
2023-01-31T22:26:32.401Z,101196.41
2023-01-31T22:29:02.424Z,101198.41
2023-01-31T22:31:30.415Z,101190.72
2023-01-31T22:33:57.670Z,101184.78
2023-01-31T22:36:24.781Z,101184.25
2023-01-31T22:38:52.449Z,101189.75
2023-01-31T22:41:20.300Z,101190.72
2023-01-31T22:43:50.952Z,101183.63
2023-01-31T22:46:21.497Z,101186.56
2023-01-31T22:48:49.525Z,101194.50
2023-01-31T22:51:21.053Z,101184.00
2023-01-31T22:53:49.434Z,101186.66
2023-01-31T22:56:19.818Z,101185.09
2023-01-31T22:58:47.470Z,101178.09
2023-01-31T23:01:19.942Z,101173.69
2023-01-31T23:03:48.122Z,101176.91
2023-01-31T23:06:16.820Z,101166.69
2023-01-31T23:08:44.601Z,101159.81
2023-01-31T23:11:15.091Z,101153.81
2023-01-31T23:13:42.991Z,101154.19
2023-01-31T23:16:17.300Z,101138.34
2023-01-31T23:18:44.490Z,101142.75
2023-01-31T23:21:17.127Z,101145.88
2023-01-31T23:23:45.434Z,101140.72
2023-01-31T23:26:13.348Z,101147.84
2023-01-31T23:28:40.873Z,101154.31
2023-01-31T23:31:08.080Z,101152.91
2023-01-31T23:33:35.585Z,101146.66
2023-01-31T23:36:02.797Z,101151.25
2023-01-31T23:38:29.854Z,101131.09
2023-01-31T23:40:56.833Z,101144.63
2023-01-31T23:43:23.980Z,101152.72
2023-01-31T23:45:51.065Z,101130.91
2023-01-31T23:48:18.433Z,101116.34
2023-01-31T23:50:45.514Z,101118.09
2023-01-31T23:53:12.508Z,101112.94
2023-01-31T23:55:40.372Z,101106.47
2023-01-31T23:58:07.300Z,101108.31
